createdAt,value
2022-12-15T00:00:47.996Z,16.13
2022-12-15T00:03:54.410Z,14.67
2022-12-15T00:07:00.771Z,15.40
2022-12-15T00:10:07.223Z,14.17
2022-12-15T00:13:13.409Z,14.53
2022-12-15T00:16:19.545Z,16.90
2022-12-15T00:19:25.705Z,14.97
2022-12-15T00:22:31.628Z,17.73
2022-12-15T00:25:37.878Z,15.50
2022-12-15T00:28:43.829Z,14.57
2022-12-15T00:31:50.112Z,17.60
2022-12-15T00:34:56.310Z,15.60
2022-12-15T00:38:02.418Z,15.50
2022-12-15T00:40:51.369Z,14.63
2022-12-15T00:43:39.127Z,15.93
2022-12-15T00:46:45.086Z,16.40
2022-12-15T00:49:51.267Z,15.50
2022-12-15T00:52:57.395Z,16.23
2022-12-15T00:56:03.672Z,14.67
2022-12-15T00:59:10.318Z,15.37
2022-12-15T01:02:16.576Z,16.63
2022-12-15T01:05:22.929Z,14.57
2022-12-15T01:08:29.317Z,15.90
2022-12-15T01:11:35.480Z,14.90
2022-12-15T01:14:41.909Z,16.27
2022-12-15T01:17:47.831Z,16.57
2022-12-15T01:20:35.182Z,16.80
2022-12-15T01:23:22.522Z,14.83
2022-12-15T01:26:09.909Z,15.90
2022-12-15T01:28:57.280Z,16.03
2022-12-15T01:31:44.680Z,16.23
2022-12-15T01:34:37.190Z,17.43
2022-12-15T01:37:24.522Z,14.97
2022-12-15T01:40:35.156Z,16.27
2022-12-15T01:43:27.361Z,15.20
2022-12-15T01:46:17.657Z,15.13
2022-12-15T01:49:14.714Z,16.80
2022-12-15T01:52:03.068Z,15.03
2022-12-15T01:54:51.392Z,14.93
2022-12-15T01:57:40.498Z,16.00
2022-12-15T02:00:28.098Z,17.07
2022-12-15T02:03:15.604Z,15.40
2022-12-15T02:06:03.542Z,15.87
2022-12-15T02:08:53.005Z,15.13
2022-12-15T02:11:58.425Z,15.50
2022-12-15T02:14:58.237Z,16.07
2022-12-15T02:17:48.648Z,16.30
2022-12-15T02:20:48.067Z,14.67
2022-12-15T02:23:35.498Z,13.67
2022-12-15T02:26:22.917Z,14.87
2022-12-15T02:29:19.425Z,15.30
2022-12-15T02:32:14.247Z,14.80
2022-12-15T02:35:04.038Z,14.77
2022-12-15T02:37:51.869Z,13.83
2022-12-15T02:40:39.881Z,14.80
2022-12-15T02:43:28.142Z,14.13
2022-12-15T02:46:21.238Z,14.43
2022-12-15T02:49:23.622Z,12.83
2022-12-15T02:52:22.081Z,13.37
2022-12-15T02:55:13.157Z,13.00
2022-12-15T02:58:02.721Z,13.70
2022-12-15T03:01:04.782Z,12.90
2022-12-15T03:03:52.595Z,12.33
2022-12-15T03:06:40.388Z,13.00
2022-12-15T03:09:27.740Z,12.57
2022-12-15T03:12:15.102Z,12.90
2022-12-15T03:15:02.487Z,12.23
2022-12-15T03:17:49.842Z,12.43
2022-12-15T03:20:37.185Z,12.37
2022-12-15T03:23:24.547Z,11.30
2022-12-15T03:26:12.004Z,11.77
2022-12-15T03:28:59.333Z,11.00
2022-12-15T03:31:49.981Z,11.77
2022-12-15T03:34:37.670Z,10.93
2022-12-15T03:37:25.010Z,13.03
2022-12-15T03:40:16.177Z,11.33
2022-12-15T03:43:03.524Z,11.70
2022-12-15T03:45:50.927Z,12.40
2022-12-15T03:48:38.341Z,13.30
2022-12-15T03:51:25.718Z,12.70
2022-12-15T03:54:13.936Z,11.20
2022-12-15T03:57:01.938Z,12.07
2022-12-15T03:59:49.364Z,11.07
2022-12-15T04:02:36.749Z,12.07
2022-12-15T04:05:25.648Z,11.87
2022-12-15T04:08:13.096Z,11.27
2022-12-15T04:11:00.492Z,10.93
2022-12-15T04:13:47.923Z,11.40
2022-12-15T04:16:35.316Z,10.67
2022-12-15T04:19:41.686Z,10.07
2022-12-15T04:22:29.010Z,11.27
2022-12-15T04:25:39.699Z,10.87
2022-12-15T04:28:46.006Z,10.43
2022-12-15T04:31:53.350Z,10.80
2022-12-15T04:34:59.538Z,11.60
2022-12-15T04:38:05.944Z,11.67
2022-12-15T04:41:12.323Z,10.27
2022-12-15T04:44:18.679Z,11.40
2022-12-15T04:47:25.078Z,10.53
2022-12-15T04:50:31.350Z,11.10
2022-12-15T04:53:37.840Z,11.43
2022-12-15T04:56:43.825Z,11.47
2022-12-15T04:59:49.801Z,12.33
2022-12-15T05:02:55.913Z,12.40
2022-12-15T05:06:02.237Z,11.50
2022-12-15T05:09:08.398Z,11.90
2022-12-15T05:12:14.616Z,12.97
2022-12-15T05:15:20.872Z,12.00
2022-12-15T05:18:27.077Z,12.33
2022-12-15T05:21:33.303Z,11.83
2022-12-15T05:24:39.264Z,11.83
2022-12-15T05:27:45.403Z,11.17
2022-12-15T05:30:51.651Z,10.87
2022-12-15T05:33:39.311Z,11.83
2022-12-15T05:36:26.678Z,11.20
2022-12-15T05:39:14.412Z,11.40
2022-12-15T05:42:01.902Z,11.67
2022-12-15T05:44:50.087Z,11.73
2022-12-15T05:47:39.329Z,11.07
2022-12-15T05:50:27.862Z,16.00
2022-12-15T05:53:15.214Z,13.27
2022-12-15T05:56:03.717Z,16.45
2022-12-15T05:58:51.417Z,13.57
2022-12-15T06:01:39.345Z,12.30
2022-12-15T06:04:27.160Z,13.00
2022-12-15T06:07:15.113Z,12.07
2022-12-15T06:10:02.910Z,12.10
2022-12-15T06:12:50.793Z,12.40
2022-12-15T06:15:38.415Z,13.27
2022-12-15T06:18:26.548Z,12.60
2022-12-15T06:21:18.027Z,14.57
2022-12-15T06:24:06.128Z,13.90
2022-12-15T06:26:53.469Z,13.93
2022-12-15T06:29:40.794Z,14.80
2022-12-15T06:32:28.118Z,11.23
2022-12-15T06:35:15.530Z,12.90
2022-12-15T06:38:02.884Z,14.07
2022-12-15T06:41:00.080Z,11.73
2022-12-15T06:43:51.610Z,12.83
2022-12-15T06:46:38.993Z,13.57
2022-12-15T06:49:26.349Z,13.33
2022-12-15T06:52:14.452Z,12.73
2022-12-15T06:55:02.251Z,13.10
2022-12-15T06:57:49.633Z,12.97
2022-12-15T07:00:37.563Z,14.63
2022-12-15T07:03:25.128Z,12.33
2022-12-15T07:06:15.312Z,14.03
2022-12-15T07:09:02.730Z,13.40
2022-12-15T07:11:51.247Z,12.97
2022-12-15T07:14:38.589Z,14.17
2022-12-15T07:17:26.151Z,13.57
2022-12-15T07:20:13.873Z,12.77
2022-12-15T07:23:03.697Z,13.67
2022-12-15T07:25:51.082Z,12.50
2022-12-15T07:28:38.790Z,12.43
2022-12-15T07:31:26.309Z,12.47
2022-12-15T07:34:13.743Z,12.80
2022-12-15T07:37:01.699Z,12.50
2022-12-15T07:39:49.037Z,13.33
2022-12-15T07:42:36.757Z,13.83
2022-12-15T07:45:24.135Z,14.20
2022-12-15T07:48:11.478Z,13.03
2022-12-15T07:51:07.266Z,14.40
2022-12-15T07:53:56.582Z,13.47
2022-12-15T07:56:44.179Z,13.23
2022-12-15T07:59:37.807Z,14.37
2022-12-15T08:02:25.239Z,13.97
2022-12-15T08:05:12.694Z,13.03
2022-12-15T08:08:00.053Z,16.37
2022-12-15T08:10:47.403Z,13.73
2022-12-15T08:16:42.644Z,13.23
2022-12-15T08:19:30.732Z,13.17
2022-12-15T08:22:18.063Z,14.23
2022-12-15T08:25:05.591Z,13.03
2022-12-15T08:27:53.232Z,13.67
2022-12-15T08:30:41.039Z,13.77
2022-12-15T08:33:28.804Z,14.50
2022-12-15T08:36:17.595Z,14.47
2022-12-15T08:39:05.077Z,12.27
2022-12-15T08:41:52.443Z,14.10
2022-12-15T08:44:40.070Z,13.47
2022-12-15T08:47:27.410Z,14.50
2022-12-15T08:50:14.777Z,13.57
2022-12-15T08:53:29.702Z,12.27
2022-12-15T08:56:14.017Z,12.60
2022-12-15T08:59:02.335Z,15.33
2022-12-15T09:01:49.816Z,14.53
2022-12-15T09:04:37.868Z,14.53
2022-12-15T09:07:25.303Z,13.43
2022-12-15T09:10:12.670Z,13.70
2022-12-15T09:13:00.031Z,14.43
2022-12-15T09:16:11.476Z,13.87
2022-12-15T09:18:56.344Z,12.57
2022-12-15T09:21:45.281Z,13.47
2022-12-15T09:24:35.366Z,13.60
2022-12-15T09:27:23.604Z,15.70
2022-12-15T09:30:11.119Z,16.10
2022-12-15T09:32:58.546Z,16.97
2022-12-15T09:35:52.780Z,18.10
2022-12-15T09:38:41.419Z,14.23
2022-12-15T09:41:33.219Z,13.70
2022-12-15T09:44:22.261Z,14.27
2022-12-15T09:47:17.057Z,15.53
2022-12-15T09:50:06.308Z,15.10
2022-12-15T09:53:00.987Z,11.97
2022-12-15T09:55:49.905Z,13.40
2022-12-15T09:58:44.183Z,15.00
2022-12-15T10:01:48.468Z,14.53
2022-12-15T10:04:59.184Z,14.80
2022-12-15T10:07:50.597Z,14.90
2022-12-15T10:10:58.289Z,15.43
2022-12-15T10:13:51.306Z,16.43
2022-12-15T10:16:41.924Z,13.73
2022-12-15T10:19:32.433Z,15.07
2022-12-15T10:22:31.441Z,13.23
2022-12-15T10:25:27.616Z,13.97
2022-12-15T10:28:20.330Z,13.47
2022-12-15T10:31:07.739Z,14.17
2022-12-15T10:33:58.359Z,13.83
2022-12-15T10:36:50.603Z,14.37
2022-12-15T10:39:39.687Z,12.93
2022-12-15T10:42:27.670Z,14.90
2022-12-15T10:45:33.744Z,14.57
2022-12-15T10:48:21.261Z,16.70
2022-12-15T10:51:19.776Z,15.30
2022-12-15T10:54:10.305Z,13.07
2022-12-15T10:56:59.898Z,14.87
2022-12-15T10:59:50.347Z,15.67
2022-12-15T11:02:38.718Z,14.47
2022-12-15T11:05:28.130Z,14.33
2022-12-15T11:08:18.251Z,14.37
2022-12-15T11:11:45.165Z,15.07
2022-12-15T11:14:53.890Z,13.13
2022-12-15T11:17:42.793Z,15.13
2022-12-15T11:20:40.412Z,13.00
2022-12-15T11:23:36.001Z,14.87
2022-12-15T11:26:42.331Z,14.23
2022-12-15T11:29:34.568Z,15.80
2022-12-15T11:32:24.548Z,15.73
2022-12-15T11:35:16.416Z,14.70
2022-12-15T11:38:22.766Z,13.97
2022-12-15T11:41:28.968Z,13.53
2022-12-15T11:44:25.333Z,13.77
2022-12-15T11:47:31.464Z,15.40
2022-12-15T11:50:39.713Z,14.33
2022-12-15T11:53:39.382Z,14.50
2022-12-15T11:56:45.501Z,13.70
2022-12-15T11:59:42.148Z,13.57
2022-12-15T12:02:32.688Z,13.30
2022-12-15T12:05:20.183Z,13.70
2022-12-15T12:08:16.675Z,13.33
2022-12-15T12:11:04.053Z,11.80
2022-12-15T12:13:59.541Z,12.53
2022-12-15T12:17:02.212Z,13.37
2022-12-15T12:19:52.609Z,12.57
2022-12-15T12:22:43.391Z,11.90
2022-12-15T12:25:33.857Z,12.07
2022-12-15T12:28:27.986Z,11.40
2022-12-15T12:31:38.827Z,12.93
2022-12-15T12:34:51.495Z,12.07
2022-12-15T12:37:43.678Z,13.93
2022-12-15T12:40:31.621Z,15.03
2022-12-15T12:43:33.415Z,12.70
2022-12-15T12:46:25.660Z,13.63
2022-12-15T12:49:31.350Z,13.20
2022-12-15T12:52:38.940Z,11.97
2022-12-15T12:55:35.872Z,11.80
2022-12-15T12:58:32.687Z,15.55
2022-12-15T13:01:33.930Z,12.83
2022-12-15T13:04:30.387Z,15.27
2022-12-15T13:07:31.636Z,11.30
2022-12-15T13:10:20.371Z,12.80
2022-12-15T13:13:36.373Z,13.37
2022-12-15T13:16:27.850Z,12.87
2022-12-15T13:19:15.358Z,11.87
2022-12-15T13:22:03.131Z,11.17
2022-12-15T13:24:52.001Z,11.07
2022-12-15T13:27:40.624Z,11.30
2022-12-15T13:30:28.348Z,11.13
2022-12-15T13:33:18.897Z,11.03
2022-12-15T13:36:06.340Z,12.03
2022-12-15T13:38:56.731Z,11.73
2022-12-15T13:44:58.994Z,11.47
2022-12-15T13:47:51.665Z,12.00
2022-12-15T13:50:51.324Z,11.47
2022-12-15T13:53:51.810Z,11.37
2022-12-15T13:56:46.426Z,10.33
2022-12-15T13:59:33.750Z,10.77
2022-12-15T14:02:29.112Z,10.90
2022-12-15T14:05:20.964Z,11.17
2022-12-15T14:08:11.255Z,11.13
2022-12-15T14:11:00.138Z,11.10
2022-12-15T14:13:52.345Z,11.10
2022-12-15T14:16:41.884Z,11.57
2022-12-15T14:19:42.770Z,11.17
2022-12-15T14:22:30.691Z,11.47
2022-12-15T14:25:36.108Z,10.43
2022-12-15T14:28:29.821Z,11.27
2022-12-15T14:31:20.227Z,11.73
2022-12-15T14:34:09.466Z,10.20
2022-12-15T14:36:58.614Z,9.93
2022-12-15T14:39:47.648Z,10.37
2022-12-15T14:42:38.642Z,10.93
2022-12-15T14:45:27.564Z,11.97
2022-12-15T14:51:25.963Z,11.97
2022-12-15T14:54:49.020Z,11.43
2022-12-15T14:57:41.898Z,10.97
2022-12-15T15:00:31.569Z,10.83
2022-12-15T15:03:16.031Z,11.13
2022-12-15T15:06:14.695Z,10.40
2022-12-15T15:09:20.432Z,10.87
2022-12-15T15:12:09.143Z,11.17
2022-12-15T15:14:59.035Z,11.53
2022-12-15T15:17:49.918Z,10.63
2022-12-15T15:20:37.741Z,9.83
2022-12-15T15:23:25.183Z,12.57
2022-12-15T15:26:17.025Z,11.07
2022-12-15T15:29:05.382Z,11.67
2022-12-15T15:31:54.187Z,10.63
2022-12-15T15:34:41.526Z,10.50
2022-12-15T15:37:29.222Z,11.00
2022-12-15T15:40:17.603Z,11.07
2022-12-15T15:43:12.439Z,10.03
2022-12-15T15:46:02.733Z,10.00
2022-12-15T15:48:58.191Z,10.23
2022-12-15T15:51:45.697Z,10.23
2022-12-15T15:54:35.862Z,9.40
2022-12-15T15:57:23.260Z,12.27
2022-12-15T16:00:15.752Z,12.13
2022-12-15T16:03:03.775Z,11.60
2022-12-15T16:05:51.745Z,11.20
2022-12-15T16:08:39.096Z,11.30
2022-12-15T16:11:28.467Z,10.67
2022-12-15T16:14:16.613Z,11.63
2022-12-15T16:17:03.980Z,16.07
2022-12-15T16:19:51.490Z,15.60
2022-12-15T16:22:39.513Z,15.03
2022-12-15T16:25:36.624Z,13.50
2022-12-15T16:28:30.611Z,14.20
2022-12-15T16:31:28.600Z,14.00
2022-12-15T16:34:16.919Z,13.90
2022-12-15T16:37:04.592Z,14.33
2022-12-15T16:39:52.239Z,12.87
2022-12-15T16:42:39.615Z,12.80
2022-12-15T16:45:28.274Z,13.33
2022-12-15T16:48:16.041Z,18.60
2022-12-15T16:51:06.350Z,24.27
2022-12-15T16:53:53.694Z,25.90
2022-12-15T16:56:42.550Z,18.43
2022-12-15T16:59:34.633Z,15.87
2022-12-15T17:02:28.234Z,13.37
2022-12-15T17:05:15.924Z,13.07
2022-12-15T17:08:05.008Z,12.67
2022-12-15T17:10:52.734Z,12.80
2022-12-15T17:13:45.581Z,12.07
2022-12-15T17:16:33.527Z,12.60
2022-12-15T17:19:21.530Z,12.43
2022-12-15T17:22:12.688Z,12.93
2022-12-15T17:25:00.041Z,12.60
2022-12-15T17:27:49.137Z,12.70
2022-12-15T17:30:36.603Z,11.90
2022-12-15T17:33:27.834Z,13.07
2022-12-15T17:36:20.791Z,12.83
2022-12-15T17:39:10.775Z,13.37
2022-12-15T17:42:00.551Z,13.37
2022-12-15T17:44:49.435Z,12.83
2022-12-15T17:47:39.243Z,12.33
2022-12-15T17:50:26.588Z,15.50
2022-12-15T17:53:14.087Z,16.03
2022-12-15T17:56:01.445Z,14.10
2022-12-15T17:58:48.845Z,14.07
2022-12-15T18:01:36.326Z,13.60
2022-12-15T18:04:23.830Z,12.27
2022-12-15T18:07:15.890Z,14.37
2022-12-15T18:10:03.296Z,12.07
2022-12-15T18:12:50.667Z,12.80
2022-12-15T18:15:38.283Z,13.13
2022-12-15T18:18:26.153Z,11.73
2022-12-15T18:21:15.271Z,11.87
2022-12-15T18:24:03.060Z,13.37
2022-12-15T18:26:50.464Z,12.23
2022-12-15T18:29:37.909Z,12.67
2022-12-15T18:32:26.435Z,13.20
2022-12-15T18:35:15.080Z,12.30
2022-12-15T18:38:07.318Z,13.47
2022-12-15T18:40:57.054Z,14.67
2022-12-15T18:43:45.122Z,14.53
2022-12-15T18:46:32.500Z,16.20
2022-12-15T18:49:19.937Z,13.30
2022-12-15T18:52:13.634Z,15.87
2022-12-15T18:55:02.027Z,12.13
2022-12-15T18:57:50.681Z,12.10
2022-12-15T19:00:39.379Z,12.80
2022-12-15T19:03:27.027Z,13.37
2022-12-15T19:06:19.388Z,12.57
2022-12-15T19:09:15.034Z,10.90
2022-12-15T19:12:17.653Z,11.50
2022-12-15T19:15:07.447Z,11.23
2022-12-15T19:18:14.169Z,11.10
2022-12-15T19:21:30.067Z,11.43
2022-12-15T19:24:18.821Z,11.93
2022-12-15T19:27:09.891Z,12.80
2022-12-15T19:29:57.282Z,11.57
2022-12-15T19:32:45.025Z,13.87
2022-12-15T19:35:33.089Z,16.03
2022-12-15T19:38:27.368Z,14.30
2022-12-15T19:41:15.921Z,15.07
2022-12-15T19:44:03.287Z,13.47
2022-12-15T19:46:50.716Z,13.13
2022-12-15T19:49:38.097Z,14.33
2022-12-15T19:52:25.545Z,16.90
2022-12-15T19:55:21.196Z,14.93
2022-12-15T19:58:26.918Z,14.43
2022-12-15T20:01:16.375Z,15.23
2022-12-15T20:04:03.850Z,15.47
2022-12-15T20:06:51.256Z,14.40
2022-12-15T20:09:38.686Z,14.93
2022-12-15T20:12:27.240Z,15.47
2022-12-15T20:15:19.184Z,14.27
2022-12-15T20:18:06.704Z,14.70
2022-12-15T20:20:54.133Z,14.03
2022-12-15T20:23:47.732Z,15.27
2022-12-15T20:26:35.838Z,14.83
2022-12-15T20:29:28.500Z,18.93
2022-12-15T20:32:17.732Z,18.13
2022-12-15T20:35:05.340Z,16.90
2022-12-15T20:37:52.765Z,17.33
2022-12-15T20:40:40.187Z,16.67
2022-12-15T20:43:30.926Z,17.97
2022-12-15T20:46:20.661Z,17.57
2022-12-15T20:49:15.233Z,16.77
2022-12-15T20:52:03.617Z,17.57
2022-12-15T20:54:51.369Z,15.40
2022-12-15T20:57:38.751Z,17.63
2022-12-15T21:00:26.252Z,17.30
2022-12-15T21:03:21.078Z,16.70
2022-12-15T21:06:09.395Z,17.23
2022-12-15T21:09:12.890Z,18.10
2022-12-15T21:12:03.167Z,16.23
2022-12-15T21:14:55.491Z,15.53
2022-12-15T21:17:43.081Z,15.40
2022-12-15T21:20:30.454Z,16.73
2022-12-15T21:23:41.119Z,17.17
2022-12-15T21:26:30.130Z,14.70
2022-12-15T21:29:18.707Z,15.93
2022-12-15T21:32:06.060Z,15.93
2022-12-15T21:34:53.403Z,15.20
2022-12-15T21:37:43.356Z,14.60
2022-12-15T21:40:48.635Z,15.27
2022-12-15T21:43:36.413Z,14.90
2022-12-15T21:46:28.415Z,15.80
2022-12-15T21:49:20.366Z,16.27
2022-12-15T21:52:12.572Z,14.30
2022-12-15T21:54:59.916Z,15.90
2022-12-15T21:57:47.294Z,16.40
2022-12-15T22:00:34.614Z,14.83
2022-12-15T22:03:22.163Z,15.67
2022-12-15T22:06:17.004Z,15.70
2022-12-15T22:09:04.693Z,15.97
2022-12-15T22:11:53.722Z,15.77
2022-12-15T22:14:41.114Z,16.57
2022-12-15T22:17:28.707Z,16.30
2022-12-15T22:20:16.190Z,16.23
2022-12-15T22:23:03.513Z,15.77
2022-12-15T22:25:54.069Z,16.17
2022-12-15T22:28:42.047Z,17.37
2022-12-15T22:31:29.786Z,17.27
2022-12-15T22:34:18.988Z,14.93
2022-12-15T22:37:06.331Z,16.13
2022-12-15T22:39:53.672Z,13.97
2022-12-15T22:42:44.539Z,14.97
2022-12-15T22:45:31.851Z,15.30
2022-12-15T22:48:20.659Z,14.07
2022-12-15T22:51:08.378Z,14.30
2022-12-15T22:53:55.706Z,14.03
2022-12-15T22:56:43.078Z,13.97
2022-12-15T22:59:51.886Z,15.23
2022-12-15T23:02:41.387Z,13.70
2022-12-15T23:05:28.962Z,15.10
2022-12-15T23:08:16.331Z,13.83
2022-12-15T23:11:22.730Z,13.73
2022-12-15T23:14:14.286Z,13.60
2022-12-15T23:17:02.902Z,14.50
2022-12-15T23:19:50.289Z,15.70
2022-12-15T23:22:37.625Z,17.47
2022-12-15T23:25:24.991Z,18.77
2022-12-15T23:28:12.326Z,16.37
2022-12-15T23:31:00.206Z,16.60
2022-12-15T23:33:47.604Z,14.67
2022-12-15T23:36:35.020Z,14.60
2022-12-15T23:39:22.388Z,14.23
2022-12-15T23:42:11.577Z,13.47
2022-12-15T23:44:58.995Z,15.17
2022-12-15T23:47:46.369Z,15.13
2022-12-15T23:50:33.856Z,14.23
2022-12-15T23:53:21.203Z,15.63
2022-12-15T23:56:16.247Z,15.70
2022-12-15T23:59:03.590Z,14.33
